createdAt,value
2022-11-25T00:00:18.229Z,16.30
2022-11-25T00:02:45.374Z,15.73
2022-11-25T00:05:12.510Z,14.95
2022-11-25T00:07:39.439Z,14.32
2022-11-25T00:10:07.244Z,13.95
2022-11-25T00:12:34.256Z,12.93
2022-11-25T00:15:01.165Z,13.50
2022-11-25T00:17:27.997Z,12.55
2022-11-25T00:19:55.003Z,12.13
2022-11-25T00:22:21.829Z,11.85
2022-11-25T00:24:48.739Z,11.13
2022-11-25T00:27:15.593Z,11.52
2022-11-25T00:29:42.414Z,11.30
2022-11-25T00:32:09.332Z,11.13
2022-11-25T00:34:36.568Z,10.73
2022-11-25T00:37:03.529Z,11.05
2022-11-25T00:39:30.458Z,10.38
2022-11-25T00:42:16.020Z,9.65
2022-11-25T00:44:42.980Z,9.50
2022-11-25T00:47:10.272Z,10.02
2022-11-25T00:49:38.569Z,9.55
2022-11-25T00:52:06.097Z,11.00
2022-11-25T00:54:33.655Z,8.40
2022-11-25T00:57:00.751Z,8.70
2022-11-25T00:59:28.804Z,7.80
2022-11-25T01:01:56.353Z,8.23
2022-11-25T01:04:23.354Z,8.77
2022-11-25T01:06:50.261Z,9.18
2022-11-25T01:09:17.106Z,7.82
2022-11-25T01:11:43.955Z,8.00
2022-11-25T01:14:11.197Z,7.75
2022-11-25T01:16:38.363Z,8.55
2022-11-25T01:19:05.502Z,8.32
2022-11-25T01:21:33.651Z,7.70
2022-11-25T01:24:01.788Z,6.72
2022-11-25T01:26:29.756Z,7.05
2022-11-25T01:29:05.501Z,6.20
2022-11-25T01:31:35.158Z,6.95
2022-11-25T01:36:34.862Z,6.75
2022-11-25T01:39:01.804Z,6.22
2022-11-25T01:41:30.704Z,6.80
2022-11-25T01:44:10.005Z,6.82
2022-11-25T01:46:48.784Z,6.28
2022-11-25T01:49:23.631Z,5.70
2022-11-25T01:52:11.659Z,6.72
2022-11-25T01:54:43.170Z,5.78
2022-11-25T01:57:37.251Z,5.80
2022-11-25T02:00:07.857Z,5.90
2022-11-25T02:02:34.915Z,5.72
2022-11-25T02:05:09.057Z,5.18
2022-11-25T02:07:41.641Z,5.35
2022-11-25T02:10:16.115Z,5.60
2022-11-25T02:12:45.037Z,5.20
2022-11-25T02:15:12.904Z,4.82
2022-11-25T02:17:40.055Z,5.32
2022-11-25T02:20:21.393Z,5.60
2022-11-25T02:22:59.619Z,5.65
2022-11-25T02:25:35.129Z,4.72
2022-11-25T02:28:15.390Z,4.97
2022-11-25T02:30:42.894Z,4.82
2022-11-25T02:33:10.091Z,5.07
2022-11-25T02:35:47.656Z,4.90
2022-11-25T02:38:20.947Z,4.95
2022-11-25T02:40:51.386Z,4.78
2022-11-25T02:43:18.577Z,4.57
2022-11-25T02:45:49.593Z,5.72
2022-11-25T02:48:16.752Z,4.88
2022-11-25T02:50:43.732Z,4.15
2022-11-25T02:53:10.950Z,4.25
2022-11-25T02:55:37.779Z,4.75
2022-11-25T02:58:04.805Z,4.60
2022-11-25T03:00:31.677Z,4.13
2022-11-25T03:05:25.890Z,4.28
2022-11-25T03:07:52.811Z,4.43
2022-11-25T03:10:19.771Z,4.10
2022-11-25T03:12:46.597Z,4.15
2022-11-25T03:15:13.555Z,4.65
2022-11-25T03:17:42.221Z,4.10
2022-11-25T03:20:09.903Z,3.95
2022-11-25T03:22:36.758Z,4.20
2022-11-25T03:25:03.863Z,3.90
2022-11-25T03:27:30.694Z,3.50
2022-11-25T03:29:57.571Z,3.88
2022-11-25T03:32:24.503Z,3.80
2022-11-25T03:34:51.392Z,3.50
2022-11-25T03:37:18.644Z,4.00
2022-11-25T03:39:45.982Z,3.63
2022-11-25T03:42:12.918Z,4.07
2022-11-25T03:44:39.956Z,4.35
2022-11-25T03:47:06.790Z,4.13
2022-11-25T03:49:33.605Z,3.80
2022-11-25T03:52:01.280Z,3.42
2022-11-25T03:54:28.239Z,3.33
2022-11-25T03:56:55.174Z,2.97
2022-11-25T03:59:22.065Z,3.47
2022-11-25T04:01:48.930Z,3.53
2022-11-25T04:04:15.861Z,3.80
2022-11-25T04:06:42.726Z,3.13
2022-11-25T04:09:12.085Z,3.30
2022-11-25T04:11:57.579Z,3.38
2022-11-25T04:14:24.418Z,3.42
2022-11-25T04:16:51.407Z,3.63
2022-11-25T04:19:18.693Z,3.78
2022-11-25T04:21:50.773Z,3.35
2022-11-25T04:24:19.827Z,3.03
2022-11-25T04:26:46.634Z,3.05
2022-11-25T04:29:13.498Z,3.25
2022-11-25T04:31:40.361Z,4.28
2022-11-25T04:34:07.221Z,2.92
2022-11-25T04:36:34.175Z,3.22
2022-11-25T04:39:00.993Z,3.55
2022-11-25T04:41:27.943Z,3.10
2022-11-25T04:43:54.875Z,3.10
2022-11-25T04:46:26.668Z,3.78
2022-11-25T04:48:53.601Z,2.58
2022-11-25T04:51:20.439Z,2.60
2022-11-25T04:53:47.280Z,2.67
2022-11-25T04:56:21.794Z,4.20
2022-11-25T04:59:07.367Z,3.17
2022-11-25T05:01:34.278Z,3.17
2022-11-25T05:04:01.153Z,3.47
2022-11-25T05:06:28.001Z,2.80
2022-11-25T05:08:54.879Z,2.35
2022-11-25T05:11:21.725Z,3.38
2022-11-25T05:13:48.675Z,2.60
2022-11-25T05:16:15.543Z,2.70
2022-11-25T05:18:42.399Z,2.78
2022-11-25T05:21:09.362Z,2.75
2022-11-25T05:23:36.237Z,3.45
2022-11-25T05:26:04.081Z,2.72
2022-11-25T05:28:31.811Z,3.35
2022-11-25T05:30:58.783Z,2.40
2022-11-25T05:33:25.684Z,3.10
2022-11-25T05:36:00.136Z,3.13
2022-11-25T05:38:27.541Z,3.83
2022-11-25T05:41:00.305Z,2.78
2022-11-25T05:43:27.232Z,3.53
2022-11-25T05:45:54.128Z,3.10
2022-11-25T05:48:20.988Z,2.40
2022-11-25T05:50:47.853Z,3.65
2022-11-25T05:53:17.318Z,2.88
2022-11-25T05:55:44.509Z,2.65
2022-11-25T05:58:11.359Z,3.20
2022-11-25T06:00:38.209Z,2.38
2022-11-25T06:03:05.128Z,2.78
2022-11-25T06:05:35.171Z,2.50
2022-11-25T06:08:02.019Z,2.17
2022-11-25T06:10:28.897Z,3.00
2022-11-25T06:12:55.723Z,2.75
2022-11-25T06:15:22.694Z,2.33
2022-11-25T06:17:49.578Z,2.20
2022-11-25T06:20:16.535Z,2.70
2022-11-25T06:22:43.400Z,2.80
2022-11-25T06:25:10.315Z,2.13
2022-11-25T06:28:04.599Z,2.90
2022-11-25T06:30:24.463Z,8.95
2022-11-25T06:32:51.365Z,16.17
2022-11-25T06:35:18.270Z,13.70
2022-11-25T06:37:45.155Z,12.90
2022-11-25T06:40:12.259Z,11.45
2022-11-25T06:42:39.806Z,9.50
2022-11-25T06:45:07.238Z,9.10
2022-11-25T06:47:34.086Z,11.63
2022-11-25T06:50:00.933Z,11.95
2022-11-25T06:52:29.812Z,6.93
2022-11-25T06:54:56.896Z,6.50
2022-11-25T06:57:23.851Z,5.85
2022-11-25T06:59:51.425Z,8.27
2022-11-25T07:02:18.278Z,5.75
2022-11-25T07:04:45.188Z,11.30
2022-11-25T07:07:12.154Z,11.75
2022-11-25T07:09:39.045Z,9.48
2022-11-25T07:12:06.645Z,8.90
2022-11-25T07:14:33.568Z,10.15
2022-11-25T07:17:00.539Z,7.25
2022-11-25T07:19:27.365Z,6.05
2022-11-25T07:21:54.154Z,6.05
2022-11-25T07:24:20.948Z,5.90
2022-11-25T07:26:47.793Z,5.75
2022-11-25T07:29:51.541Z,11.23
2022-11-25T07:32:07.279Z,12.45
2022-11-25T07:34:35.632Z,11.90
2022-11-25T07:37:02.461Z,11.95
2022-11-25T07:39:29.311Z,10.60
2022-11-25T07:41:56.105Z,11.93
2022-11-25T07:44:22.931Z,8.90
2022-11-25T07:46:50.686Z,9.32
2022-11-25T07:49:22.738Z,8.13
2022-11-25T07:51:54.768Z,7.40
2022-11-25T07:54:22.776Z,7.15
2022-11-25T07:56:50.886Z,6.40
2022-11-25T07:59:20.143Z,6.43
2022-11-25T08:01:49.467Z,6.45
2022-11-25T08:04:20.185Z,5.95
2022-11-25T08:06:49.749Z,9.95
2022-11-25T08:09:19.380Z,13.80
2022-11-25T08:11:47.129Z,11.90
2022-11-25T08:14:14.637Z,12.23
2022-11-25T08:16:41.944Z,10.35
2022-11-25T08:19:11.744Z,7.65
2022-11-25T08:24:06.100Z,7.07
2022-11-25T08:26:36.568Z,7.07
2022-11-25T08:29:06.927Z,5.93
2022-11-25T08:31:36.277Z,7.40
2022-11-25T08:34:04.158Z,5.82
2022-11-25T08:36:31.330Z,6.20
2022-11-25T08:38:59.912Z,5.50
2022-11-25T08:41:35.643Z,5.40
2022-11-25T08:44:04.636Z,4.93
2022-11-25T08:46:34.346Z,7.75
2022-11-25T08:51:30.247Z,6.30
2022-11-25T08:53:57.625Z,4.20
2022-11-25T08:56:26.480Z,4.47
2022-11-25T08:58:54.947Z,3.92
2022-11-25T09:01:22.920Z,4.38
2022-11-25T09:03:52.516Z,10.20
2022-11-25T09:06:19.662Z,11.65
2022-11-25T09:08:47.128Z,6.75
2022-11-25T09:11:14.144Z,5.35
2022-11-25T09:13:41.063Z,7.28
2022-11-25T09:16:09.451Z,5.20
2022-11-25T09:18:37.309Z,6.53
2022-11-25T09:21:12.582Z,4.75
2022-11-25T09:23:39.869Z,6.32
2022-11-25T09:26:07.646Z,4.85
2022-11-25T09:28:35.612Z,4.43
2022-11-25T09:31:09.815Z,3.92
2022-11-25T09:33:37.348Z,4.75
2022-11-25T09:36:06.202Z,4.93
2022-11-25T09:38:34.149Z,5.83
2022-11-25T09:41:05.653Z,3.90
2022-11-25T09:44:14.955Z,3.67
2022-11-25T09:46:57.913Z,3.97
2022-11-25T09:49:43.589Z,4.35
2022-11-25T09:52:44.175Z,4.68
2022-11-25T09:55:24.104Z,5.07
2022-11-25T09:58:14.261Z,9.10
2022-11-25T10:00:43.768Z,10.35
2022-11-25T10:03:16.180Z,8.05
2022-11-25T10:06:02.459Z,6.60
2022-11-25T10:08:42.308Z,6.38
2022-11-25T10:13:53.296Z,11.80
2022-11-25T10:16:35.976Z,15.82
2022-11-25T10:19:14.014Z,22.40
2022-11-25T10:21:40.846Z,21.23
2022-11-25T10:26:58.856Z,20.30
2022-11-25T10:29:29.353Z,20.05
2022-11-25T10:32:23.003Z,19.75
2022-11-25T10:34:58.754Z,16.00
2022-11-25T10:37:38.828Z,16.08
2022-11-25T10:40:06.721Z,15.68
2022-11-25T10:42:36.989Z,14.52
2022-11-25T10:45:08.959Z,13.25
2022-11-25T10:48:06.703Z,12.43
2022-11-25T10:50:55.637Z,11.68
2022-11-25T10:53:26.903Z,10.93
2022-11-25T10:55:59.628Z,10.65
2022-11-25T10:58:33.077Z,10.05
2022-11-25T11:01:22.818Z,8.77
2022-11-25T11:04:10.772Z,9.07
2022-11-25T11:06:40.291Z,9.02
2022-11-25T11:09:10.019Z,8.77
2022-11-25T11:14:20.109Z,7.38
2022-11-25T11:16:57.032Z,6.88
2022-11-25T11:19:29.217Z,7.30
2022-11-25T11:21:57.273Z,6.85
2022-11-25T11:24:35.990Z,8.40
2022-11-25T11:27:07.796Z,10.85
2022-11-25T11:29:34.929Z,15.40
2022-11-25T11:32:06.780Z,13.60
2022-11-25T11:35:08.378Z,14.05
2022-11-25T11:37:38.342Z,11.95
2022-11-25T11:40:17.431Z,10.95
2022-11-25T11:42:53.849Z,10.05
2022-11-25T11:45:42.070Z,9.93
2022-11-25T11:48:35.082Z,8.30
2022-11-25T11:51:44.518Z,7.45
2022-11-25T11:56:52.005Z,7.32
2022-11-25T11:59:52.688Z,6.97
2022-11-25T12:02:45.665Z,7.53
2022-11-25T12:05:16.271Z,10.10
2022-11-25T12:08:09.096Z,12.60
2022-11-25T12:10:49.106Z,17.08
2022-11-25T12:13:17.642Z,15.00
2022-11-25T12:16:09.210Z,17.70
2022-11-25T12:18:45.372Z,14.75
2022-11-25T12:21:51.066Z,14.63
2022-11-25T12:24:26.758Z,13.95
2022-11-25T12:27:09.726Z,9.73
2022-11-25T12:29:42.104Z,11.48
2022-11-25T12:32:33.832Z,11.52
2022-11-25T12:35:11.050Z,12.57
2022-11-25T12:38:03.403Z,13.70
2022-11-25T12:40:38.339Z,11.13
2022-11-25T12:43:34.075Z,13.43
2022-11-25T12:46:33.856Z,10.40
2022-11-25T12:49:01.158Z,11.13
2022-11-25T12:52:05.599Z,9.63
2022-11-25T12:54:47.768Z,8.23
2022-11-25T12:57:29.743Z,8.30
2022-11-25T13:03:53.984Z,7.80
2022-11-25T13:06:33.787Z,7.82
2022-11-25T13:09:09.191Z,7.13
2022-11-25T13:11:47.969Z,8.10
2022-11-25T13:14:18.474Z,7.03
2022-11-25T13:16:47.869Z,7.80
2022-11-25T13:19:19.555Z,6.93
2022-11-25T13:22:04.402Z,8.35
2022-11-25T13:24:33.760Z,9.00
2022-11-25T13:29:32.141Z,7.40
2022-11-25T13:32:01.526Z,7.82
2022-11-25T13:34:35.139Z,6.20
2022-11-25T13:37:37.848Z,12.25
2022-11-25T13:40:29.941Z,12.68
2022-11-25T13:45:36.875Z,11.35
2022-11-25T13:48:13.471Z,11.48
2022-11-25T13:51:03.497Z,8.35
2022-11-25T13:53:34.125Z,8.88
2022-11-25T13:56:30.114Z,8.10
2022-11-25T13:59:12.306Z,6.93
2022-11-25T14:01:42.085Z,6.88
2022-11-25T14:04:11.222Z,6.20
2022-11-25T14:07:03.010Z,8.30
2022-11-25T14:09:51.054Z,6.00
2022-11-25T14:12:37.370Z,6.95
2022-11-25T14:15:19.394Z,5.25
2022-11-25T14:18:36.362Z,6.32
2022-11-25T14:21:40.839Z,6.25
2022-11-25T14:24:46.526Z,17.15
2022-11-25T14:27:20.090Z,14.20
2022-11-25T14:29:52.427Z,11.90
2022-11-25T14:32:38.296Z,10.10
2022-11-25T14:35:10.594Z,8.70
2022-11-25T14:38:01.747Z,7.55
2022-11-25T14:40:40.613Z,7.75
2022-11-25T14:43:20.371Z,6.55
2022-11-25T14:45:47.491Z,6.55
2022-11-25T14:48:24.780Z,7.55
2022-11-25T14:51:04.780Z,5.70
2022-11-25T14:53:31.961Z,6.35
2022-11-25T14:56:01.440Z,5.05
2022-11-25T14:58:29.480Z,5.72
2022-11-25T15:01:02.091Z,5.20
2022-11-25T15:03:29.062Z,13.80
2022-11-25T15:05:58.353Z,16.83
2022-11-25T15:08:25.863Z,13.95
2022-11-25T15:10:59.572Z,13.02
2022-11-25T15:13:41.073Z,11.55
2022-11-25T15:16:24.200Z,11.40
2022-11-25T15:18:58.990Z,9.52
2022-11-25T15:22:21.844Z,9.70
2022-11-25T15:24:50.190Z,10.85
2022-11-25T15:27:25.301Z,8.32
2022-11-25T15:29:53.508Z,10.18
2022-11-25T15:32:23.767Z,8.52
2022-11-25T15:34:51.343Z,8.85
2022-11-25T15:37:18.518Z,9.02
2022-11-25T15:39:46.884Z,14.50
2022-11-25T15:42:20.259Z,9.55
2022-11-25T15:45:03.801Z,12.18
2022-11-25T15:47:35.288Z,11.65
2022-11-25T15:50:06.175Z,8.30
2022-11-25T15:52:35.924Z,17.38
2022-11-25T15:55:08.569Z,16.73
2022-11-25T15:57:36.907Z,17.55
2022-11-25T16:00:21.891Z,17.70
2022-11-25T16:02:54.287Z,13.88
2022-11-25T16:05:36.227Z,13.32
2022-11-25T16:08:18.413Z,13.75
2022-11-25T16:10:45.269Z,12.90
2022-11-25T16:13:25.743Z,12.82
2022-11-25T16:16:07.931Z,12.30
2022-11-25T16:18:40.980Z,10.40
2022-11-25T16:21:11.772Z,12.27
2022-11-25T16:23:42.064Z,11.95
2022-11-25T16:26:11.989Z,10.32
2022-11-25T16:28:50.883Z,10.63
2022-11-25T16:31:18.357Z,15.02
2022-11-25T16:33:45.245Z,24.90
2022-11-25T16:36:12.139Z,27.63
2022-11-25T16:38:38.984Z,30.17
2022-11-25T16:41:19.110Z,30.92
2022-11-25T16:43:46.084Z,25.08
2022-11-25T16:46:17.896Z,21.40
2022-11-25T16:48:45.258Z,19.27
2022-11-25T16:51:17.866Z,19.13
2022-11-25T16:53:45.272Z,16.15
2022-11-25T16:56:14.933Z,15.65
2022-11-25T16:58:43.954Z,13.82
2022-11-25T17:01:18.221Z,12.55
2022-11-25T17:03:45.136Z,14.68
2022-11-25T17:06:20.030Z,13.95
2022-11-25T17:08:48.741Z,18.00
2022-11-25T17:11:21.178Z,16.98
2022-11-25T17:13:51.598Z,16.23
2022-11-25T17:16:24.248Z,16.90
2022-11-25T17:18:52.989Z,15.80
2022-11-25T17:21:20.596Z,17.00
2022-11-25T17:23:50.219Z,16.88
2022-11-25T17:26:31.984Z,15.52
2022-11-25T17:29:00.591Z,15.90
2022-11-25T17:33:59.319Z,17.42
2022-11-25T17:36:27.263Z,15.10
2022-11-25T17:38:54.196Z,14.40
2022-11-25T17:41:22.702Z,14.65
2022-11-25T17:43:50.616Z,13.20
2022-11-25T17:46:17.976Z,13.43
2022-11-25T17:48:45.095Z,13.35
2022-11-25T17:51:13.413Z,13.30
2022-11-25T17:53:41.111Z,13.30
2022-11-25T17:56:23.755Z,13.15
2022-11-25T17:58:51.763Z,12.48
2022-11-25T18:01:18.858Z,12.75
2022-11-25T18:03:45.839Z,11.98
2022-11-25T18:06:12.710Z,12.57
2022-11-25T18:08:39.540Z,11.98
2022-11-25T18:11:07.668Z,13.02
2022-11-25T18:16:08.638Z,11.65
2022-11-25T18:18:35.666Z,12.80
2022-11-25T18:21:02.727Z,11.35
2022-11-25T18:23:29.705Z,15.30
2022-11-25T18:25:58.123Z,18.45
2022-11-25T18:28:26.185Z,23.90
2022-11-25T18:30:57.198Z,26.88
2022-11-25T18:33:24.183Z,27.00
2022-11-25T18:35:51.033Z,24.58
2022-11-25T18:38:17.887Z,22.83
2022-11-25T18:40:50.247Z,22.90
2022-11-25T18:43:25.390Z,23.95
2022-11-25T18:45:54.068Z,18.30
2022-11-25T18:48:25.872Z,19.30
2022-11-25T18:50:54.906Z,16.15
2022-11-25T18:53:21.944Z,14.93
2022-11-25T18:55:49.056Z,15.45
2022-11-25T18:58:21.973Z,14.93
2022-11-25T19:00:49.748Z,14.93
2022-11-25T19:03:25.904Z,12.75
2022-11-25T19:05:58.656Z,12.65
2022-11-25T19:08:25.703Z,13.07
2022-11-25T19:10:52.838Z,13.40
2022-11-25T19:13:26.162Z,11.65
2022-11-25T19:15:53.109Z,11.60
2022-11-25T19:18:27.524Z,12.57
2022-11-25T19:20:55.356Z,11.57
2022-11-25T19:23:28.888Z,11.32
2022-11-25T19:26:11.445Z,11.27
2022-11-25T19:28:38.285Z,11.68
2022-11-25T19:31:05.733Z,11.43
2022-11-25T19:33:36.478Z,11.85
2022-11-25T19:36:04.088Z,13.48
2022-11-25T19:38:32.895Z,12.05
2022-11-25T19:40:59.808Z,12.73
2022-11-25T19:43:29.901Z,10.95
2022-11-25T19:45:57.552Z,10.27
2022-11-25T19:48:27.168Z,10.52
2022-11-25T19:50:59.748Z,10.50
2022-11-25T19:53:33.055Z,11.48
2022-11-25T19:56:04.111Z,10.13
2022-11-25T19:58:31.401Z,9.88
2022-11-25T20:01:02.656Z,9.05
2022-11-25T20:03:30.769Z,11.25
2022-11-25T20:05:57.685Z,9.90
2022-11-25T20:08:27.215Z,23.08
2022-11-25T20:13:23.176Z,32.45
2022-11-25T20:15:50.135Z,33.53
2022-11-25T20:20:57.303Z,29.17
2022-11-25T20:23:43.346Z,22.33
2022-11-25T20:26:31.808Z,21.25
2022-11-25T20:28:58.785Z,18.98
2022-11-25T20:31:30.550Z,17.85
2022-11-25T20:33:57.775Z,17.67
2022-11-25T20:36:29.377Z,17.67
2022-11-25T20:38:58.874Z,14.63
2022-11-25T20:43:55.510Z,20.50
2022-11-25T20:46:24.461Z,30.25
2022-11-25T20:48:54.283Z,31.05
2022-11-25T20:51:22.238Z,31.80
2022-11-25T20:53:55.551Z,27.77
2022-11-25T20:56:24.067Z,25.98
2022-11-25T20:58:51.051Z,22.23
2022-11-25T21:01:21.397Z,24.42
2022-11-25T21:03:49.753Z,20.88
2022-11-25T21:06:28.219Z,18.88
2022-11-25T21:08:58.245Z,17.48
2022-11-25T21:11:26.133Z,16.85
2022-11-25T21:13:53.131Z,15.90
2022-11-25T21:16:20.441Z,15.52
2022-11-25T21:18:47.442Z,14.57
2022-11-25T21:21:19.007Z,15.23
2022-11-25T21:23:47.111Z,13.95
2022-11-25T21:26:22.313Z,14.15
2022-11-25T21:28:50.417Z,14.10
2022-11-25T21:31:22.984Z,13.25
2022-11-25T21:33:51.238Z,13.35
2022-11-25T21:36:23.303Z,12.85
2022-11-25T21:38:53.218Z,12.82
2022-11-25T21:41:20.138Z,15.18
2022-11-25T21:43:49.894Z,36.20
2022-11-25T21:46:22.496Z,45.13
2022-11-25T21:48:50.006Z,45.50
2022-11-25T21:51:24.065Z,45.60
2022-11-25T21:53:51.920Z,45.22
2022-11-25T21:56:29.943Z,41.53
2022-11-25T21:58:58.479Z,40.95
2022-11-25T22:01:25.492Z,38.92
2022-11-25T22:03:52.504Z,36.40
2022-11-25T22:06:23.022Z,35.28
2022-11-25T22:08:50.434Z,33.88
2022-11-25T22:11:29.882Z,31.70
2022-11-25T22:16:33.064Z,30.10
2022-11-25T22:19:00.060Z,28.33
2022-11-25T22:21:26.937Z,28.85
2022-11-25T22:23:53.930Z,27.23
2022-11-25T22:26:34.100Z,26.45
2022-11-25T22:29:02.103Z,26.60
2022-11-25T22:31:28.995Z,25.52
2022-11-25T22:33:56.002Z,26.08
2022-11-25T22:36:33.117Z,24.52
2022-11-25T22:39:15.133Z,25.20
2022-11-25T22:41:48.332Z,23.42
2022-11-25T22:44:21.886Z,23.23
2022-11-25T22:46:49.297Z,24.00
2022-11-25T22:49:39.400Z,35.08
2022-11-25T22:52:10.384Z,40.65
2022-11-25T22:54:37.507Z,36.95
2022-11-25T22:57:04.594Z,32.88
2022-11-25T22:59:31.486Z,31.48
2022-11-25T23:01:58.478Z,30.25
2022-11-25T23:04:25.400Z,27.70
2022-11-25T23:06:52.760Z,26.67
2022-11-25T23:09:19.777Z,25.38
2022-11-25T23:11:47.153Z,23.58
2022-11-25T23:14:14.111Z,25.67
2022-11-25T23:16:42.218Z,23.33
2022-11-25T23:19:16.779Z,22.10
2022-11-25T23:21:45.463Z,22.38
2022-11-25T23:24:14.439Z,21.50
2022-11-25T23:29:26.056Z,21.45
2022-11-25T23:31:52.972Z,20.15
2022-11-25T23:34:19.823Z,20.98
2022-11-25T23:36:47.432Z,20.88
2022-11-25T23:39:20.315Z,20.13
2022-11-25T23:41:47.308Z,19.13
2022-11-25T23:44:17.385Z,19.20
2022-11-25T23:46:44.718Z,18.67
2022-11-25T23:49:26.302Z,18.40
2022-11-25T23:51:55.806Z,17.83
2022-11-25T23:54:23.040Z,29.02
2022-11-25T23:56:49.903Z,28.95
2022-11-25T23:59:17.253Z,28.80
